createdAt,value
2022-08-25T00:02:00.016Z,102291.72
2022-08-25T00:04:29.744Z,102295.25
2022-08-25T00:07:02.096Z,102290.84
2022-08-25T00:09:32.108Z,102289.16
2022-08-25T00:12:00.053Z,102296.53
2022-08-25T00:14:33.597Z,102301.75
2022-08-25T00:17:02.519Z,102293.00
2022-08-25T00:19:32.268Z,102303.22
2022-08-25T00:22:01.502Z,102299.63
2022-08-25T00:24:29.645Z,102297.09
2022-08-25T00:26:59.156Z,102302.78
2022-08-25T00:29:28.126Z,102301.75
2022-08-25T00:31:56.279Z,102305.59
2022-08-25T00:34:31.550Z,102304.63
2022-08-25T00:36:59.259Z,102312.25
2022-08-25T00:39:27.656Z,102318.66
2022-08-25T00:41:57.637Z,102316.09
2022-08-25T00:44:28.611Z,102310.13
2022-08-25T00:46:58.880Z,102305.91
2022-08-25T00:49:48.156Z,102304.75
2022-08-25T00:52:25.257Z,102312.84
2022-08-25T00:55:08.172Z,102306.47
2022-08-25T00:58:14.634Z,102302.91
2022-08-25T01:00:49.545Z,102303.06
2022-08-25T01:03:19.249Z,102301.78
2022-08-25T01:05:48.026Z,102303.53
2022-08-25T01:08:16.232Z,102302.25
2022-08-25T01:10:45.200Z,102296.00
2022-08-25T01:13:23.829Z,102302.81
2022-08-25T01:15:55.132Z,102309.88
2022-08-25T01:18:24.212Z,102299.38
2022-08-25T01:20:59.846Z,102295.72
2022-08-25T01:23:27.666Z,102298.53
2022-08-25T01:26:09.604Z,102294.00
2022-08-25T01:28:38.094Z,102296.69
2022-08-25T01:31:23.915Z,102302.25
2022-08-25T01:33:52.096Z,102301.41
2022-08-25T01:36:22.058Z,102306.50
2022-08-25T01:38:50.370Z,102305.38
2022-08-25T01:41:51.458Z,102302.53
2022-08-25T01:44:19.336Z,102295.56
2022-08-25T01:46:47.008Z,102303.94
2022-08-25T01:49:14.861Z,102295.00
2022-08-25T01:51:53.543Z,102300.41
2022-08-25T01:54:21.082Z,102303.94
2022-08-25T01:56:48.651Z,102308.63
2022-08-25T01:59:24.012Z,102298.56
2022-08-25T02:01:59.688Z,102295.59
2022-08-25T02:04:32.442Z,102294.75
2022-08-25T02:07:05.316Z,102299.31
2022-08-25T02:09:33.450Z,102292.03
2022-08-25T02:12:01.311Z,102291.34
2022-08-25T02:14:28.777Z,102295.19
2022-08-25T02:16:57.425Z,102292.34
2022-08-25T02:19:26.113Z,102295.88
2022-08-25T02:21:54.125Z,102290.09
2022-08-25T02:24:21.607Z,102286.53
2022-08-25T02:26:50.528Z,102293.78
2022-08-25T02:29:18.357Z,102290.50
2022-08-25T02:31:46.173Z,102289.66
2022-08-25T02:34:15.288Z,102295.78
2022-08-25T02:36:44.048Z,102285.84
2022-08-25T02:39:12.616Z,102289.94
2022-08-25T02:41:40.448Z,102291.94
2022-08-25T02:44:09.422Z,102291.06
2022-08-25T02:46:37.777Z,102298.47
2022-08-25T02:49:06.796Z,102296.47
2022-08-25T02:51:35.151Z,102301.44
2022-08-25T02:54:04.276Z,102298.19
2022-08-25T02:56:33.071Z,102300.16
2022-08-25T02:59:02.031Z,102304.00
2022-08-25T03:01:32.703Z,102303.00
2022-08-25T03:04:01.893Z,102311.94
2022-08-25T03:06:29.672Z,102309.38
2022-08-25T03:08:57.376Z,102315.03
2022-08-25T03:11:25.677Z,102309.53
2022-08-25T03:13:54.185Z,102316.59
2022-08-25T03:16:22.671Z,102313.63
2022-08-25T03:18:56.382Z,102308.97
2022-08-25T03:21:26.329Z,102315.91
2022-08-25T03:23:53.659Z,102309.66
2022-08-25T03:26:39.839Z,102312.22
2022-08-25T03:29:07.922Z,102310.94
2022-08-25T03:31:36.029Z,102313.34
2022-08-25T03:34:04.560Z,102313.63
2022-08-25T03:36:32.369Z,102311.09
2022-08-25T03:39:00.406Z,102313.91
2022-08-25T03:41:32.750Z,102312.91
2022-08-25T03:44:01.913Z,102312.34
2022-08-25T03:46:35.558Z,102321.84
2022-08-25T03:49:05.970Z,102314.63
2022-08-25T03:51:48.703Z,102318.88
2022-08-25T03:54:20.245Z,102315.34
2022-08-25T03:56:48.525Z,102319.72
2022-08-25T03:59:16.245Z,102321.41
2022-08-25T04:01:45.775Z,102326.66
2022-08-25T04:04:15.274Z,102319.56
2022-08-25T04:06:44.660Z,102324.66
2022-08-25T04:09:13.013Z,102323.97
2022-08-25T04:11:40.702Z,102325.94
2022-08-25T04:14:15.927Z,102325.25
2022-08-25T04:16:45.341Z,102335.72
2022-08-25T04:19:13.128Z,102328.63
2022-08-25T04:21:41.482Z,102332.91
2022-08-25T04:24:12.077Z,102346.06
2022-08-25T04:26:43.096Z,102345.50
2022-08-25T04:29:12.058Z,102343.78
2022-08-25T04:31:42.205Z,102333.72
2022-08-25T04:34:14.263Z,102336.69
2022-08-25T04:36:56.765Z,102343.66
2022-08-25T04:39:24.449Z,102342.25
2022-08-25T04:41:52.094Z,102343.94
2022-08-25T04:44:19.982Z,102343.78
2022-08-25T04:46:47.543Z,102343.09
2022-08-25T04:49:15.376Z,102328.63
2022-08-25T04:51:43.353Z,102330.34
2022-08-25T04:54:13.920Z,102335.03
2022-08-25T04:56:41.768Z,102324.09
2022-08-25T04:59:14.858Z,102327.53
2022-08-25T05:01:43.332Z,102326.09
2022-08-25T05:04:14.730Z,102325.41
2022-08-25T05:06:56.166Z,102318.16
2022-08-25T05:09:25.217Z,102326.94
2022-08-25T05:11:53.534Z,102315.47
2022-08-25T05:14:25.654Z,102321.97
2022-08-25T05:16:57.010Z,102320.44
2022-08-25T05:19:25.350Z,102320.44
2022-08-25T05:21:53.880Z,102321.97
2022-08-25T05:24:22.797Z,102331.19
2022-08-25T05:26:50.377Z,102323.25
2022-08-25T05:29:18.300Z,102334.88
2022-08-25T05:31:50.267Z,102333.03
2022-08-25T05:34:19.612Z,102340.41
2022-08-25T05:36:48.084Z,102341.53
2022-08-25T05:39:15.834Z,102350.59
2022-08-25T05:41:43.806Z,102349.47
2022-08-25T05:44:12.935Z,102353.56
2022-08-25T05:46:40.633Z,102360.50
2022-08-25T05:49:08.131Z,102358.69
2022-08-25T05:51:36.006Z,102364.91
2022-08-25T05:54:04.011Z,102366.59
2022-08-25T05:56:31.770Z,102369.84
2022-08-25T05:58:59.328Z,102368.31
2022-08-25T06:01:48.262Z,102375.53
2022-08-25T06:04:18.133Z,102382.34
2022-08-25T06:06:45.952Z,102382.47
2022-08-25T06:09:13.665Z,102382.22
2022-08-25T06:11:41.902Z,102386.00
2022-08-25T06:14:11.096Z,102378.94
2022-08-25T06:16:39.436Z,102381.75
2022-08-25T06:19:08.834Z,102383.03
2022-08-25T06:21:39.184Z,102378.97
2022-08-25T06:24:10.970Z,102383.31
2022-08-25T06:26:40.991Z,102377.13
2022-08-25T06:29:08.495Z,102381.19
2022-08-25T06:31:36.125Z,102378.50
2022-08-25T06:34:03.724Z,102372.84
2022-08-25T06:36:31.243Z,102369.16
2022-08-25T06:38:58.810Z,102377.13
2022-08-25T06:41:36.563Z,102366.06
2022-08-25T06:44:11.083Z,102379.25
2022-08-25T06:46:39.424Z,102386.75
2022-08-25T06:49:08.177Z,102383.22
2022-08-25T06:51:36.331Z,102389.44
2022-08-25T06:54:06.444Z,102396.94
2022-08-25T06:56:34.732Z,102396.25
2022-08-25T06:59:04.484Z,102407.44
2022-08-25T07:01:32.440Z,102397.94
2022-08-25T07:04:05.004Z,102398.94
2022-08-25T07:06:36.008Z,102392.41
2022-08-25T07:09:08.583Z,102402.19
2022-08-25T07:11:36.467Z,102395.53
2022-08-25T07:14:06.264Z,102404.34
2022-08-25T07:16:35.135Z,102397.53
2022-08-25T07:19:03.703Z,102408.28
2022-08-25T07:21:35.921Z,102404.88
2022-08-25T07:24:13.025Z,102396.38
2022-08-25T07:26:42.457Z,102398.09
2022-08-25T07:29:17.232Z,102395.97
2022-08-25T07:31:45.365Z,102396.53
2022-08-25T07:34:31.269Z,102397.66
2022-08-25T07:36:58.777Z,102384.19
2022-08-25T07:39:29.094Z,102394.66
2022-08-25T07:41:57.096Z,102397.38
2022-08-25T07:44:28.069Z,102389.72
2022-08-25T07:46:55.933Z,102406.28
2022-08-25T07:49:25.142Z,102406.47
2022-08-25T07:52:04.420Z,102410.13
2022-08-25T07:54:37.683Z,102404.75
2022-08-25T07:57:09.005Z,102400.91
2022-08-25T07:59:41.798Z,102408.13
2022-08-25T08:02:17.754Z,102404.47
2022-08-25T08:04:51.792Z,102403.59
2022-08-25T08:07:41.969Z,102406.56
2022-08-25T08:13:01.896Z,102411.97
2022-08-25T08:15:30.434Z,102413.09
2022-08-25T08:17:59.604Z,102413.69
2022-08-25T08:20:27.274Z,102405.19
2022-08-25T08:22:55.038Z,102412.13
2022-08-25T08:25:27.239Z,102411.56
2022-08-25T08:27:56.595Z,102404.91
2022-08-25T08:30:26.265Z,102407.28
2022-08-25T08:33:11.651Z,102413.09
2022-08-25T08:35:42.893Z,102409.25
2022-08-25T08:38:17.306Z,102409.16
2022-08-25T08:41:40.175Z,102414.25
2022-08-25T08:44:28.344Z,102407.44
2022-08-25T08:47:02.969Z,102413.09
2022-08-25T08:49:53.922Z,102412.53
2022-08-25T08:52:37.652Z,102419.22
2022-08-25T08:55:11.898Z,102412.25
2022-08-25T08:57:45.119Z,102415.78
2022-08-25T09:00:16.034Z,102412.97
2022-08-25T09:03:28.474Z,102414.25
2022-08-25T09:06:01.093Z,102419.06
2022-08-25T09:08:31.439Z,102422.19
2022-08-25T09:11:12.228Z,102416.25
2022-08-25T09:14:21.240Z,102415.81
2022-08-25T09:17:17.486Z,102424.31
2022-08-25T09:19:44.932Z,102423.31
2022-08-25T09:22:34.938Z,102431.84
2022-08-25T09:25:39.611Z,102419.19
2022-08-25T09:28:28.574Z,102420.03
2022-08-25T09:31:03.639Z,102428.72
2022-08-25T09:33:35.615Z,102428.25
2022-08-25T09:36:06.446Z,102427.44
2022-08-25T09:38:36.943Z,102425.84
2022-08-25T09:41:07.731Z,102429.41
2022-08-25T09:43:41.606Z,102423.31
2022-08-25T09:46:29.445Z,102423.88
2022-08-25T09:49:12.500Z,102423.31
2022-08-25T09:51:42.907Z,102430.53
2022-08-25T09:54:13.647Z,102429.13
2022-08-25T09:56:54.915Z,102433.53
2022-08-25T09:59:34.428Z,102432.66
2022-08-25T10:02:08.125Z,102438.06
2022-08-25T10:04:40.039Z,102438.47
2022-08-25T10:07:30.104Z,102434.19
2022-08-25T10:10:01.665Z,102433.19
2022-08-25T10:12:38.118Z,102434.91
2022-08-25T10:15:30.028Z,102435.34
2022-08-25T10:18:27.910Z,102433.19
2022-08-25T10:21:07.447Z,102438.16
2022-08-25T10:23:40.827Z,102429.25
2022-08-25T10:26:17.292Z,102430.53
2022-08-25T10:29:00.128Z,102430.06
2022-08-25T10:31:49.179Z,102424.97
2022-08-25T10:34:28.584Z,102432.34
2022-08-25T10:37:27.418Z,102431.19
2022-08-25T10:40:11.042Z,102432.03
2022-08-25T10:42:43.308Z,102426.34
2022-08-25T10:45:38.057Z,102429.47
2022-08-25T10:48:44.768Z,102426.75
2022-08-25T10:51:31.846Z,102427.44
2022-08-25T10:54:36.709Z,102434.66
2022-08-25T10:57:29.373Z,102433.91
2022-08-25T11:00:14.680Z,102429.69
2022-08-25T11:03:01.851Z,102430.56
2022-08-25T11:05:51.552Z,102428.94
2022-08-25T11:08:24.994Z,102438.91
2022-08-25T11:11:04.706Z,102438.16
2022-08-25T11:13:32.212Z,102442.56
2022-08-25T11:16:19.391Z,102432.38
2022-08-25T11:19:06.888Z,102431.81
2022-08-25T11:22:13.090Z,102440.88
2022-08-25T11:24:49.655Z,102440.03
2022-08-25T11:27:31.133Z,102441.59
2022-08-25T11:30:07.176Z,102442.03
2022-08-25T11:32:37.166Z,102438.75
2022-08-25T11:35:09.864Z,102445.97
2022-08-25T11:37:54.495Z,102435.75
2022-08-25T11:40:55.783Z,102444.66
2022-08-25T11:43:23.232Z,102444.53
2022-08-25T11:46:14.391Z,102447.31
2022-08-25T11:48:55.311Z,102442.16
2022-08-25T11:51:36.505Z,102445.56
2022-08-25T11:54:29.458Z,102445.31
2022-08-25T11:56:56.998Z,102453.50
2022-08-25T11:59:50.059Z,102461.59
2022-08-25T12:02:36.407Z,102458.25
2022-08-25T12:05:08.878Z,102452.38
2022-08-25T12:07:48.602Z,102453.22
2022-08-25T12:10:25.695Z,102448.63
2022-08-25T12:12:56.642Z,102448.91
2022-08-25T12:15:25.997Z,102438.94
2022-08-25T12:18:29.635Z,102436.31
2022-08-25T12:20:57.432Z,102435.75
2022-08-25T12:24:02.870Z,102444.09
2022-08-25T12:26:40.507Z,102437.16
2022-08-25T12:29:24.974Z,102435.06
2022-08-25T12:32:04.886Z,102432.66
2022-08-25T12:34:54.080Z,102429.81
2022-08-25T12:37:24.211Z,102431.66
2022-08-25T12:40:00.063Z,102429.13
2022-08-25T12:42:30.945Z,102431.66
2022-08-25T12:45:19.853Z,102428.56
2022-08-25T12:47:49.654Z,102434.22
2022-08-25T12:50:46.236Z,102429.00
2022-08-25T12:53:37.933Z,102426.91
2022-08-25T12:56:24.374Z,102436.50
2022-08-25T12:59:19.546Z,102433.53
2022-08-25T13:02:15.027Z,102431.09
2022-08-25T13:05:07.715Z,102434.56
2022-08-25T13:07:38.330Z,102427.75
2022-08-25T13:10:12.183Z,102429.47
2022-08-25T13:12:57.858Z,102432.16
2022-08-25T13:15:36.404Z,102436.81
2022-08-25T13:18:30.740Z,102432.25
2022-08-25T13:21:15.158Z,102427.69
2022-08-25T13:23:45.917Z,102431.50
2022-08-25T13:26:16.649Z,102434.34
2022-08-25T13:28:54.077Z,102435.44
2022-08-25T13:31:22.573Z,102432.78
2022-08-25T13:33:59.469Z,102442.16
2022-08-25T13:36:54.309Z,102438.06
2022-08-25T13:39:52.658Z,102436.63
2022-08-25T13:42:17.600Z,102441.59
2022-08-25T13:44:51.895Z,102430.53
2022-08-25T13:47:45.495Z,102425.72
2022-08-25T13:50:18.374Z,102428.69
2022-08-25T13:52:56.273Z,102429.13
2022-08-25T13:55:50.449Z,102423.84
2022-08-25T13:58:45.691Z,102429.69
2022-08-25T14:01:23.261Z,102429.69
2022-08-25T14:04:33.591Z,102424.97
2022-08-25T14:07:19.517Z,102425.13
2022-08-25T14:09:53.207Z,102425.47
2022-08-25T14:15:11.830Z,102415.50
2022-08-25T14:17:42.674Z,102416.09
2022-08-25T14:20:25.741Z,102419.34
2022-08-25T14:22:58.060Z,102422.63
2022-08-25T14:25:32.631Z,102425.59
2022-08-25T14:28:07.359Z,102426.16
2022-08-25T14:30:39.598Z,102429.97
2022-08-25T14:33:12.392Z,102430.97
2022-08-25T14:35:42.305Z,102427.31
2022-08-25T14:38:11.992Z,102427.41
2022-08-25T14:40:40.073Z,102432.94
2022-08-25T14:43:09.512Z,102427.16
2022-08-25T14:45:41.098Z,102424.59
2022-08-25T14:48:14.412Z,102418.91
2022-08-25T14:50:42.366Z,102421.34
2022-08-25T14:53:11.811Z,102418.66
2022-08-25T14:55:39.837Z,102427.56
2022-08-25T14:58:08.663Z,102419.22
2022-08-25T15:00:42.078Z,102430.53
2022-08-25T15:03:16.812Z,102427.72
2022-08-25T15:05:45.476Z,102420.34
2022-08-25T15:08:33.358Z,102423.19
2022-08-25T15:11:01.384Z,102416.38
2022-08-25T15:13:36.786Z,102420.50
2022-08-25T15:16:05.277Z,102415.97
2022-08-25T15:18:33.222Z,102415.53
2022-08-25T15:21:01.099Z,102417.22
2022-08-25T15:23:29.494Z,102421.75
2022-08-25T15:25:57.411Z,102415.97
2022-08-25T15:28:25.189Z,102416.22
2022-08-25T15:30:54.106Z,102424.28
2022-08-25T15:33:22.885Z,102421.59
2022-08-25T15:35:50.692Z,102413.81
2022-08-25T15:38:20.699Z,102427.84
2022-08-25T15:40:48.250Z,102418.78
2022-08-25T15:43:16.594Z,102416.38
2022-08-25T15:45:44.106Z,102410.00
2022-08-25T15:48:14.334Z,102399.19
2022-08-25T15:50:42.334Z,102405.59
2022-08-25T15:53:10.561Z,102404.88
2022-08-25T15:55:40.061Z,102411.38
2022-08-25T15:58:08.836Z,102406.69
2022-08-25T16:00:37.756Z,102403.06
2022-08-25T16:03:08.100Z,102407.22
2022-08-25T16:05:38.005Z,102402.72
2022-08-25T16:08:06.765Z,102402.31
2022-08-25T16:10:47.064Z,102403.28
2022-08-25T16:13:15.008Z,102405.56
2022-08-25T16:15:54.169Z,102402.03
2022-08-25T16:18:23.513Z,102396.47
2022-08-25T16:20:51.858Z,102397.50
2022-08-25T16:23:20.495Z,102399.34
2022-08-25T16:25:49.600Z,102398.59
2022-08-25T16:28:20.671Z,102396.34
2022-08-25T16:30:52.910Z,102399.03
2022-08-25T16:33:20.605Z,102402.88
2022-08-25T16:35:49.165Z,102404.78
2022-08-25T16:38:16.812Z,102404.66
2022-08-25T16:40:45.950Z,102399.38
2022-08-25T16:43:13.531Z,102401.94
2022-08-25T16:45:41.410Z,102403.06
2022-08-25T16:48:09.452Z,102397.53
2022-08-25T16:50:39.488Z,102400.22
2022-08-25T16:53:25.267Z,102397.81
2022-08-25T16:56:05.070Z,102403.03
2022-08-25T16:58:35.789Z,102410.50
2022-08-25T17:01:15.015Z,102410.50
2022-08-25T17:03:44.204Z,102414.91
2022-08-25T17:06:14.192Z,102416.75
2022-08-25T17:08:43.096Z,102418.59
2022-08-25T17:11:17.640Z,102412.50
2022-08-25T17:13:49.863Z,102406.72
2022-08-25T17:16:19.398Z,102412.88
2022-08-25T17:18:48.542Z,102406.94
2022-08-25T17:21:24.115Z,102417.03
2022-08-25T17:23:54.238Z,102414.16
2022-08-25T17:26:27.995Z,102413.59
2022-08-25T17:28:59.430Z,102409.16
2022-08-25T17:31:28.498Z,102406.63
2022-08-25T17:33:57.619Z,102408.75
2022-08-25T17:36:26.920Z,102415.72
2022-08-25T17:38:56.830Z,102418.50
2022-08-25T17:41:25.478Z,102410.09
2022-08-25T17:43:53.010Z,102398.91
2022-08-25T17:46:21.762Z,102396.47
2022-08-25T17:48:49.834Z,102402.56
2022-08-25T17:51:17.743Z,102391.75
2022-08-25T17:53:45.414Z,102387.06
2022-08-25T17:56:21.516Z,102386.94
2022-08-25T17:58:50.206Z,102392.31
2022-08-25T18:01:22.433Z,102393.25
2022-08-25T18:03:50.841Z,102392.44
2022-08-25T18:06:19.771Z,102398.53
2022-08-25T18:08:52.333Z,102392.59
2022-08-25T18:11:24.652Z,102395.28
2022-08-25T18:13:53.902Z,102391.00
2022-08-25T18:16:22.979Z,102393.41
2022-08-25T18:18:51.465Z,102386.03
2022-08-25T18:21:22.480Z,102384.88
2022-08-25T18:23:50.364Z,102384.88
2022-08-25T18:26:21.966Z,102379.22
2022-08-25T18:28:53.463Z,102383.03
2022-08-25T18:31:21.525Z,102384.59
2022-08-25T18:33:50.936Z,102383.75
2022-08-25T18:36:21.161Z,102372.28
2022-08-25T18:39:07.930Z,102379.22
2022-08-25T18:41:40.383Z,102379.22
2022-08-25T18:44:08.981Z,102384.13
2022-08-25T18:46:40.231Z,102376.63
2022-08-25T18:49:08.996Z,102378.22
2022-08-25T18:51:37.312Z,102378.22
2022-08-25T18:54:05.331Z,102378.06
2022-08-25T18:56:34.270Z,102379.88
2022-08-25T18:59:01.955Z,102385.25
2022-08-25T19:01:30.095Z,102380.16
2022-08-25T19:03:57.740Z,102388.75
2022-08-25T19:06:25.342Z,102376.44
2022-08-25T19:08:53.551Z,102382.72
2022-08-25T19:11:22.322Z,102381.28
2022-08-25T19:13:51.350Z,102374.72
2022-08-25T19:16:34.476Z,102372.41
2022-08-25T19:19:04.236Z,102368.31
2022-08-25T19:21:35.405Z,102369.97
2022-08-25T19:24:03.341Z,102370.56
2022-08-25T19:26:31.768Z,102368.91
2022-08-25T19:28:59.691Z,102372.81
2022-08-25T19:31:28.085Z,102372.31
2022-08-25T19:34:01.851Z,102368.41
2022-08-25T19:36:30.287Z,102368.38
2022-08-25T19:39:01.267Z,102359.47
2022-08-25T19:41:31.263Z,102371.94
2022-08-25T19:43:59.500Z,102372.41
2022-08-25T19:46:33.299Z,102368.66
2022-08-25T19:49:09.568Z,102369.97
2022-08-25T19:51:44.139Z,102363.03
2022-08-25T19:54:14.946Z,102359.78
2022-08-25T19:56:53.902Z,102360.38
2022-08-25T19:59:26.844Z,102356.22
2022-08-25T20:02:10.847Z,102357.22
2022-08-25T20:04:38.820Z,102360.50
2022-08-25T20:07:07.500Z,102355.84
2022-08-25T20:09:41.092Z,102356.19
2022-08-25T20:12:10.449Z,102362.34
2022-08-25T20:14:39.197Z,102356.59
2022-08-25T20:17:23.459Z,102359.38
2022-08-25T20:19:57.666Z,102362.00
2022-08-25T20:22:29.479Z,102352.25
2022-08-25T20:25:01.237Z,102362.53
2022-08-25T20:27:34.042Z,102359.53
2022-08-25T20:30:03.039Z,102358.03
2022-08-25T20:32:33.007Z,102356.66
2022-08-25T20:35:02.342Z,102353.00
2022-08-25T20:37:31.530Z,102358.09
2022-08-25T20:40:02.304Z,102364.16
2022-08-25T20:42:30.034Z,102365.81
2022-08-25T20:44:57.548Z,102366.78
2022-08-25T20:47:25.734Z,102367.66
2022-08-25T20:49:53.432Z,102367.38
2022-08-25T20:52:21.068Z,102366.69
2022-08-25T20:54:51.041Z,102370.34
2022-08-25T20:57:25.545Z,102373.03
2022-08-25T20:59:54.973Z,102378.91
2022-08-25T21:02:24.344Z,102365.75
2022-08-25T21:04:53.984Z,102371.63
2022-08-25T21:07:25.855Z,102372.38
2022-08-25T21:09:56.310Z,102370.66
2022-08-25T21:12:24.018Z,102375.53
2022-08-25T21:14:51.904Z,102377.34
2022-08-25T21:17:20.166Z,102380.63
2022-08-25T21:22:16.467Z,102374.25
2022-08-25T21:24:45.039Z,102378.66
2022-08-25T21:27:12.618Z,102375.97
2022-08-25T21:29:44.546Z,102372.56
2022-08-25T21:32:19.166Z,102371.56
2022-08-25T21:34:51.468Z,102369.91
2022-08-25T21:37:18.939Z,102369.28
2022-08-25T21:39:46.760Z,102358.81
2022-08-25T21:42:14.402Z,102360.50
2022-08-25T21:44:42.958Z,102356.97
2022-08-25T21:47:10.932Z,102361.53
2022-08-25T21:49:38.626Z,102357.28
2022-08-25T21:52:07.583Z,102361.22
2022-08-25T21:54:35.166Z,102361.22
2022-08-25T21:57:06.218Z,102371.56
2022-08-25T21:59:37.691Z,102371.56
2022-08-25T22:02:11.359Z,102376.09
2022-08-25T22:04:39.608Z,102378.78
2022-08-25T22:07:09.000Z,102375.09
2022-08-25T22:09:37.156Z,102371.84
2022-08-25T22:12:05.444Z,102368.28
2022-08-25T22:14:33.893Z,102370.97
2022-08-25T22:17:02.610Z,102363.19
2022-08-25T22:19:30.264Z,102356.97
2022-08-25T22:22:01.780Z,102360.28
2022-08-25T22:24:29.322Z,102360.75
2022-08-25T22:26:57.120Z,102357.66
2022-08-25T22:29:26.277Z,102362.41
2022-08-25T22:31:59.332Z,102357.16
2022-08-25T22:34:34.458Z,102358.97
2022-08-25T22:37:03.958Z,102358.63
2022-08-25T22:39:34.304Z,102352.03
2022-08-25T22:42:03.563Z,102359.13
2022-08-25T22:44:31.094Z,102354.47
2022-08-25T22:46:58.662Z,102352.91
2022-08-25T22:49:29.015Z,102358.41
2022-08-25T22:51:56.458Z,102356.44
2022-08-25T22:54:25.588Z,102348.97
2022-08-25T22:56:53.736Z,102348.72
2022-08-25T22:59:22.507Z,102342.75
2022-08-25T23:01:52.691Z,102346.56
2022-08-25T23:04:22.810Z,102339.63
2022-08-25T23:06:52.729Z,102344.13
2022-08-25T23:09:20.942Z,102339.03
2022-08-25T23:11:51.146Z,102330.81
2022-08-25T23:14:19.366Z,102333.50
2022-08-25T23:16:47.096Z,102331.81
2022-08-25T23:19:14.823Z,102329.97
2022-08-25T23:22:16.444Z,102332.41
2022-08-25T23:24:48.186Z,102334.00
2022-08-25T23:27:18.402Z,102335.94
2022-08-25T23:29:49.401Z,102332.53
2022-08-25T23:32:17.998Z,102327.69
2022-08-25T23:34:47.083Z,102328.88
2022-08-25T23:37:16.237Z,102334.38
2022-08-25T23:39:48.122Z,102332.91
2022-08-25T23:42:19.298Z,102340.59
2022-08-25T23:44:48.074Z,102339.28
2022-08-25T23:47:16.063Z,102345.69
2022-08-25T23:49:43.726Z,102340.59
2022-08-25T23:52:11.306Z,102328.16
2022-08-25T23:54:39.407Z,102334.81
2022-08-25T23:57:07.431Z,102334.09
2022-08-25T23:59:36.434Z,102334.03
